地図

経路データ

SID SEASON NUMBER BASIN SUBBASIN NAME ISO_TIME NATURE LAT LON WMO_WIND WMO_PRES WMO_AGENCY TRACK_TYPE DIST2LAND LANDFALL IFLAG USA_AGENCY USA_ATCF_ID USA_LAT USA_LON USA_RECORD USA_STATUS USA_WIND USA_PRES USA_SSHS USA_R34_NE USA_R34_SE USA_R34_SW USA_R34_NW USA_R50_NE USA_R50_SE USA_R50_SW USA_R50_NW USA_R64_NE USA_R64_SE USA_R64_SW USA_R64_NW USA_POCI USA_ROCI USA_RMW USA_EYE TOKYO_LAT TOKYO_LON TOKYO_GRADE TOKYO_WIND TOKYO_PRES TOKYO_R50_DIR TOKYO_R50_LONG TOKYO_R50_SHORT TOKYO_R30_DIR TOKYO_R30_LONG TOKYO_R30_SHORT TOKYO_LAND CMA_LAT CMA_LON CMA_CAT CMA_WIND CMA_PRES HKO_LAT HKO_LON HKO_CAT HKO_WIND HKO_PRES NEWDELHI_LAT NEWDELHI_LON NEWDELHI_GRADE NEWDELHI_WIND NEWDELHI_PRES NEWDELHI_CI NEWDELHI_DP NEWDELHI_POCI REUNION_LAT REUNION_LON REUNION_TYPE REUNION_WIND REUNION_PRES REUNION_TNUM REUNION_CI REUNION_RMW REUNION_R34_NE REUNION_R34_SE REUNION_R34_SW REUNION_R34_NW REUNION_R50_NE REUNION_R50_SE REUNION_R50_SW REUNION_R50_NW REUNION_R64_NE REUNION_R64_SE REUNION_R64_SW REUNION_R64_NW BOM_LAT BOM_LON BOM_TYPE BOM_WIND BOM_PRES BOM_TNUM BOM_CI BOM_RMW BOM_R34_NE BOM_R34_SE BOM_R34_SW BOM_R34_NW BOM_R50_NE BOM_R50_SE BOM_R50_SW BOM_R50_NW BOM_R64_NE BOM_R64_SE BOM_R64_SW BOM_R64_NW BOM_ROCI BOM_POCI BOM_EYE BOM_POS_METHOD BOM_PRES_METHOD NADI_LAT NADI_LON NADI_CAT NADI_WIND NADI_PRES WELLINGTON_LAT WELLINGTON_LON WELLINGTON_WIND WELLINGTON_PRES DS824_LAT DS824_LON DS824_STAGE DS824_WIND DS824_PRES TD9636_LAT TD9636_LON TD9636_STAGE TD9636_WIND TD9636_PRES TD9635_LAT TD9635_LON TD9635_WIND TD9635_PRES TD9635_ROCI NEUMANN_LAT NEUMANN_LON NEUMANN_CLASS NEUMANN_WIND NEUMANN_PRES MLC_LAT MLC_LON MLC_CLASS MLC_WIND MLC_PRES USA_GUST BOM_GUST BOM_GUST_PER REUNION_GUST REUNION_GUST_PER USA_SEAHGT USA_SEARAD_NE USA_SEARAD_SE USA_SEARAD_SW USA_SEARAD_NW STORM_SPEED STORM_DIR
1951232N18151 1951 59 WP MM NOT_NAMED 1951-08-19 18:00:00 TS 17.7000 151.000 main 2212 2168 __O___________ -1 17.7000 151.000 0 1008 10 293
1951232N18151 1951 59 WP MM NOT_NAMED 1951-08-19 21:00:00 TS 17.8977 150.511 main 2168 2135 __P___________ -1 17.8977 150.511 0 1008 10 288
1951232N18151 1951 59 WP MM NOT_NAMED 1951-08-20 00:00:00 TS 18.0000 150.000 main 2135 2112 __O___________ -1 18.0000 150.000 0 1008 10 273
1951232N18151 1951 59 WP MM NOT_NAMED 1951-08-20 03:00:00 TS 17.9574 149.457 main 2112 2096 __P___________ -1 17.9574 149.457 0 1008 11 265
1951232N18151 1951 59 WP MM NOT_NAMED 1951-08-20 06:00:00 TS 17.9000 148.900 main 2096 2065 __O___________ -1 17.9000 148.900 0 1008 11 271
1951232N18151 1951 59 WP MM NOT_NAMED 1951-08-20 09:00:00 TS 17.9699 148.343 main 2061 2032 __P___________ -1 17.9699 148.343 0 1008 11 281
1951232N18151 1951 59 WP MM NOT_NAMED 1951-08-20 12:00:00 TS 18.1000 147.800 main 2032 2003 __O___________ -1 18.1000 147.800 0 1008 11 284
1951232N18151 1951 59 WP MM NOT_NAMED 1951-08-20 15:00:00 TS 18.2200 147.270 main 2003 1964 __P___________ -1 18.2200 147.270 0 1008 10 288
1951232N18151 1951 59 WP MM NOT_NAMED 1951-08-20 18:00:00 TS 18.4000 146.800 main 1964 1933 __O___________ -1 18.4000 146.800 0 1008 9 297
1951232N18151 1951 59 WP MM NOT_NAMED 1951-08-20 21:00:00 TS 18.6248 146.435 main 1929 1877 __P___________ -1 18.6248 146.435 0 1008 9 312
1951232N18151 1951 59 WP MM NOT_NAMED 1951-08-21 00:00:00 TS 19.0000 146.100 main 1877 1811 __O___________ -1 19.0000 146.100 0 1008 12 323
1951232N18151 1951 59 WP MM NOT_NAMED 1951-08-21 03:00:00 TS 19.5526 145.700 main 1800 1713 __P___________ -1 19.5526 145.700 0 1008 15 330
1951232N18151 1951 59 WP MM NOT_NAMED 1951-08-21 06:00:00 TS 20.3000 145.300 main 1713 1608 __O___________ -1 20.3000 145.300 0 1008 18 337
1951232N18151 1951 59 WP MM NOT_NAMED 1951-08-21 09:00:00 TS 21.2199 144.942 main 1605 1500 __P___________ -1 21.2199 144.942 0 1008 20 341
1951232N18151 1951 59 WP MM NOT_NAMED 1951-08-21 12:00:00 TS 22.2000 144.600 main 1489 1394 __O___________ -1 22.2000 144.600 0 1008 20 342
1951232N18151 1951 59 WP MM NOT_NAMED 1951-08-21 15:00:00 TS 23.0797 144.272 main 1384 1286 __P___________ -1 23.0797 144.272 0 1008 18 339
1951232N18151 1951 59 WP MM NOT_NAMED 1951-08-21 18:00:00 TS 23.9000 143.900 main 1286 1186 __O___________ -1 23.9000 143.900 0 1008 19 335
1951232N18151 1951 59 WP MM NOT_NAMED 1951-08-21 21:00:00 TS 24.7927 143.394 main 1176 1098 __P___________ -1 24.7927 143.394 0 1008 18 329
1951232N18151 1951 59 WP MM NOT_NAMED 1951-08-22 00:00:00 TS 25.4000 142.900 main 1098 1075 __O___________ -1 25.4000 142.900 0 1008 10 310
1951232N18151 1951 59 WP MM NOT_NAMED 1951-08-22 03:00:00 TS 25.4574 142.509 main 1075 1075 __P___________ -1 25.4574 142.509 0 1006 6 250
1951232N18151 1951 59 WP MM NOT_NAMED 1951-08-22 06:00:00 TS 25.2000 142.300 main 1101 1101 __O___________ -1 25.2000 142.300 0 1005 6 196
1951232N18151 1951 59 WP MM NOT_NAMED 1951-08-22 09:00:00 TS 24.8624 142.325 main 1133 1133 __P___________ -1 24.8624 142.325 0 1005 6 163
1951232N18151 1951 59 WP MM NOT_NAMED 1951-08-22 12:00:00 TS 24.6000 142.500 main 1171 1171 __O___________ -1 24.6000 142.500 1 23 1006 5 118
1951232N18151 1951 59 WP MM NOT_NAMED 1951-08-22 15:00:00 TS 24.6450 142.774 main 1180 1152 __P___________ -1 24.6450 142.774 1 23 1006 5 50
1951232N18151 1951 59 WP MM NOT_NAMED 1951-08-22 18:00:00 TS 24.9000 142.900 main 1152 1100 __O___________ -1 24.9000 142.900 1 23 1006 7 346
1951232N18151 1951 59 WP MM NOT_NAMED 1951-08-22 21:00:00 TS 25.2777 142.598 main 1100 1042 __P___________ -1 25.2777 142.598 1 26 1006 11 318
1951232N18151 1951 59 WP MM NOT_NAMED 1951-08-23 00:00:00 TS 25.7000 142.100 main 1042 998 __O___________ -1 25.7000 142.100 1 29 1006 11 311
1951232N18151 1951 59 WP MM NOT_NAMED 1951-08-23 03:00:00 TS 25.9847 141.679 main 998 947 __P___________ -1 25.9847 141.679 1 29 1006 10 307
1951232N18151 1951 59 WP MM NOT_NAMED 1951-08-23 06:00:00 TS 26.3000 141.200 main 947 883 __O___________ -1 26.3000 141.200 1 29 1006 12 310
1951232N18151 1951 59 WP MM NOT_NAMED 1951-08-23 09:00:00 TS 26.7547 140.645 main 868 790 __P___________ -1 26.7547 140.645 1 29 1006 15 313
1951232N18151 1951 59 WP MM NOT_NAMED 1951-08-23 12:00:00 TS 27.3000 140.000 main 790 708 __O___________ -1 27.3000 140.000 1 29 1006 17 312
1951232N18151 1951 59 WP MM NOT_NAMED 1951-08-23 15:00:00 TS 27.8625 139.272 main 698 604 __P___________ -1 27.8625 139.272 1 29 1006 18 312
1951232N18151 1951 59 WP MM NOT_NAMED 1951-08-23 18:00:00 TS 28.5000 138.500 main 604 505 __O___________ -1 28.5000 138.500 1 29 1006 19 315
1951232N18151 1951 59 WP MM NOT_NAMED 1951-08-23 21:00:00 TS 29.2256 137.745 main 501 395 __P___________ -1 29.2256 137.745 1 1007 20 319
1951232N18151 1951 59 WP MM NOT_NAMED 1951-08-24 00:00:00 TS 30.0000 137.000 main 395 __O___________ -1 30.0000 137.000 0 1008 20 320

デジタル台風データ・検索

IBTrACS Databaseについて

本データベースは、米国NOAAが公開する1842年以降の世界の熱帯低気圧のベストトラックデータアーカイブInternational Best Track Archive for Climate Stewardship (IBTrACS)を、ウェブで閲覧しやすい形式に変換したものです。

最終更新日:2021-11-26